createdAt,value
2019-03-27T00:00:10.016Z,4.80
2019-03-27T00:05:14.257Z,4.93
2019-03-27T00:10:18.526Z,5.13
2019-03-27T00:15:22.801Z,4.70
2019-03-27T00:20:27.008Z,4.67
2019-03-27T00:25:31.387Z,4.70
2019-03-27T00:30:35.627Z,4.80
2019-03-27T00:35:39.873Z,5.63
2019-03-27T00:40:44.606Z,4.97
2019-03-27T00:45:48.881Z,5.93
2019-03-27T00:50:53.134Z,5.40
2019-03-27T00:55:57.400Z,5.27
2019-03-27T01:01:14.932Z,5.60
2019-03-27T01:06:19.430Z,5.50
2019-03-27T01:11:23.658Z,5.77
2019-03-27T01:16:27.896Z,5.50
2019-03-27T01:21:32.140Z,5.20
2019-03-27T01:26:36.381Z,5.97
2019-03-27T01:31:41.301Z,5.73
2019-03-27T01:37:04.901Z,5.50
2019-03-27T01:42:09.155Z,5.33
2019-03-27T01:47:13.710Z,5.50
2019-03-27T01:52:17.985Z,6.40
2019-03-27T01:57:22.263Z,4.90
2019-03-27T02:02:26.474Z,5.00
2019-03-27T02:07:30.888Z,4.20
2019-03-27T02:12:35.124Z,5.60
2019-03-27T02:17:39.325Z,4.67
2019-03-27T02:22:43.799Z,4.80
2019-03-27T02:27:48.152Z,4.90
2019-03-27T02:32:52.475Z,3.70
2019-03-27T02:37:56.803Z,4.50
2019-03-27T02:43:01.089Z,4.77
2019-03-27T02:48:05.641Z,4.33
2019-03-27T02:53:09.980Z,4.00
2019-03-27T02:58:14.279Z,4.10
2019-03-27T03:03:18.662Z,3.60
2019-03-27T03:08:22.936Z,4.10
2019-03-27T03:13:27.205Z,4.43
2019-03-27T03:18:31.408Z,4.07
2019-03-27T03:23:35.680Z,3.73
2019-03-27T03:28:39.950Z,4.00
2019-03-27T03:33:44.172Z,3.70
2019-03-27T03:38:48.626Z,3.90
2019-03-27T03:43:53.024Z,4.60
2019-03-27T03:48:57.296Z,3.37
2019-03-27T03:54:01.605Z,3.47
2019-03-27T03:59:05.910Z,3.27
2019-03-27T04:04:10.215Z,3.47
2019-03-27T04:09:14.498Z,3.97
2019-03-27T04:14:18.829Z,3.00
2019-03-27T04:19:23.124Z,3.00
2019-03-27T04:24:27.440Z,3.80
2019-03-27T04:29:31.748Z,3.23
2019-03-27T04:34:36.227Z,3.33
2019-03-27T04:39:40.560Z,3.27
2019-03-27T04:44:45.213Z,3.03
2019-03-27T04:49:49.541Z,3.10
2019-03-27T04:54:53.868Z,3.07
2019-03-27T04:59:58.120Z,2.90
2019-03-27T05:05:03.382Z,2.70
2019-03-27T05:10:07.714Z,3.93
2019-03-27T05:15:12.054Z,3.77
2019-03-27T05:20:16.381Z,4.10
2019-03-27T05:25:20.617Z,5.27
2019-03-27T05:30:28.403Z,4.80
2019-03-27T05:35:33.027Z,5.10
2019-03-27T05:40:37.299Z,6.53
2019-03-27T05:45:41.546Z,7.90
2019-03-27T05:50:46.717Z,7.07
2019-03-27T05:55:51.078Z,8.83
2019-03-27T06:00:55.483Z,8.60
2019-03-27T06:06:00.816Z,8.83
2019-03-27T06:11:05.267Z,9.07
2019-03-27T06:16:09.647Z,10.00
2019-03-27T06:21:14.009Z,10.83
2019-03-27T06:26:18.435Z,10.33
2019-03-27T06:31:22.761Z,11.63
2019-03-27T06:36:27.218Z,10.27
2019-03-27T06:41:31.614Z,9.07
2019-03-27T06:46:35.888Z,8.63
2019-03-27T06:51:40.658Z,7.07
2019-03-27T06:56:45.245Z,7.77
2019-03-27T07:01:49.601Z,6.20
2019-03-27T07:06:53.911Z,6.47
2019-03-27T07:11:58.328Z,6.53
2019-03-27T07:17:02.639Z,5.40
2019-03-27T07:22:07.144Z,6.03
2019-03-27T07:27:11.474Z,4.00
2019-03-27T07:32:15.950Z,5.07
2019-03-27T07:37:20.290Z,5.10
2019-03-27T07:42:24.701Z,4.57
2019-03-27T07:47:29.246Z,4.90
2019-03-27T07:52:33.924Z,4.27
2019-03-27T07:57:38.242Z,5.10
2019-03-27T08:02:42.848Z,4.53
2019-03-27T08:07:47.516Z,4.13
2019-03-27T08:12:52.026Z,4.63
2019-03-27T08:17:56.338Z,4.37
2019-03-27T08:23:00.976Z,4.10
2019-03-27T08:28:05.213Z,3.70
2019-03-27T08:33:09.716Z,3.80
2019-03-27T08:38:15.184Z,3.43
2019-03-27T08:43:21.402Z,3.50
2019-03-27T08:48:25.864Z,3.23
2019-03-27T08:53:30.100Z,3.20
2019-03-27T08:58:34.431Z,3.30
2019-03-27T09:03:38.714Z,3.20
2019-03-27T09:08:43.067Z,2.77
2019-03-27T09:13:47.546Z,3.10
2019-03-27T09:18:51.769Z,3.07
2019-03-27T09:23:56.157Z,3.00
2019-03-27T09:29:00.535Z,2.90
2019-03-27T09:34:04.855Z,2.80
2019-03-27T09:39:10.006Z,2.60
2019-03-27T09:44:14.619Z,2.80
2019-03-27T09:49:18.893Z,2.70
2019-03-27T09:54:23.174Z,2.40
2019-03-27T09:59:27.500Z,2.70
2019-03-27T10:04:31.762Z,2.70
2019-03-27T10:09:36.099Z,2.90
2019-03-27T10:14:40.436Z,2.60
2019-03-27T10:19:44.737Z,2.63
2019-03-27T10:24:49.013Z,2.50
2019-03-27T10:29:53.268Z,2.60
2019-03-27T10:34:57.573Z,2.90
2019-03-27T10:40:01.884Z,3.00
2019-03-27T10:45:06.367Z,2.90
2019-03-27T10:50:17.396Z,2.50
2019-03-27T10:55:17.409Z,2.90
2019-03-27T11:00:21.803Z,2.47
2019-03-27T11:05:26.049Z,2.70
2019-03-27T11:10:30.319Z,2.73
2019-03-27T11:15:34.762Z,2.90
2019-03-27T11:20:39.083Z,2.80
2019-03-27T11:25:43.392Z,2.60
2019-03-27T11:30:48.556Z,3.80
2019-03-27T11:35:52.993Z,3.43
2019-03-27T11:40:59.465Z,3.10
2019-03-27T11:46:03.753Z,4.73
2019-03-27T11:51:08.068Z,4.30
2019-03-27T11:56:12.314Z,3.90
2019-03-27T12:01:16.577Z,6.90
2019-03-27T12:06:20.909Z,8.17
2019-03-27T12:11:25.259Z,10.40
2019-03-27T12:16:29.647Z,9.10
2019-03-27T12:21:33.923Z,3.93
2019-03-27T12:26:38.184Z,2.10
2019-03-27T12:31:42.743Z,3.27
2019-03-27T12:36:49.473Z,2.80
2019-03-27T12:41:53.940Z,2.53
2019-03-27T12:46:58.188Z,2.70
2019-03-27T12:52:05.388Z,2.20
2019-03-27T12:57:08.599Z,2.77
2019-03-27T13:02:13.292Z,2.30
2019-03-27T13:07:17.732Z,2.60
2019-03-27T13:12:22.263Z,1.70
2019-03-27T13:17:26.566Z,2.63
2019-03-27T13:22:30.816Z,2.23
2019-03-27T13:27:35.121Z,2.57
2019-03-27T13:32:40.235Z,2.00
2019-03-27T13:37:44.542Z,2.20
2019-03-27T13:42:48.977Z,1.80
2019-03-27T13:47:53.838Z,2.10
2019-03-27T13:52:58.316Z,1.90
2019-03-27T13:58:02.611Z,3.53
2019-03-27T14:03:06.929Z,2.43
2019-03-27T14:08:11.238Z,2.40
2019-03-27T14:13:17.147Z,2.50
2019-03-27T14:18:22.006Z,2.20
2019-03-27T14:23:26.414Z,2.10
2019-03-27T14:28:30.900Z,2.27
2019-03-27T14:33:35.220Z,2.40
2019-03-27T14:38:39.632Z,2.83
2019-03-27T14:43:43.994Z,2.20
2019-03-27T14:48:48.493Z,2.20
2019-03-27T14:53:55.214Z,2.40
2019-03-27T14:58:59.473Z,2.40
2019-03-27T15:04:03.984Z,2.60
2019-03-27T15:09:08.829Z,2.43
2019-03-27T15:14:13.483Z,2.53
2019-03-27T15:19:17.836Z,2.80
2019-03-27T15:24:22.114Z,2.30
2019-03-27T15:29:26.350Z,1.83
2019-03-27T15:34:30.702Z,2.27
2019-03-27T15:39:35.025Z,2.17
2019-03-27T15:44:39.312Z,2.20
2019-03-27T15:49:43.658Z,2.20
2019-03-27T15:54:47.891Z,2.00
2019-03-27T15:59:52.868Z,1.73
2019-03-27T16:04:57.335Z,1.80
2019-03-27T16:10:01.815Z,1.80
2019-03-27T16:15:06.322Z,2.00
2019-03-27T16:20:10.634Z,2.40
2019-03-27T16:25:15.122Z,1.80
2019-03-27T16:30:21.212Z,2.23
2019-03-27T16:35:25.821Z,2.10
2019-03-27T16:40:49.583Z,2.40
2019-03-27T16:45:54.015Z,2.40
2019-03-27T16:50:58.380Z,2.10
2019-03-27T16:56:02.827Z,2.53
2019-03-27T17:01:07.207Z,2.00
2019-03-27T17:06:11.972Z,1.83
2019-03-27T17:11:16.702Z,2.60
2019-03-27T17:16:21.050Z,2.40
2019-03-27T17:21:25.644Z,2.27
2019-03-27T17:26:30.134Z,2.90
2019-03-27T17:31:34.480Z,3.70
2019-03-27T17:36:41.100Z,3.33
2019-03-27T17:41:45.448Z,3.67
2019-03-27T17:46:50.395Z,4.40
2019-03-27T17:51:54.888Z,4.70
2019-03-27T17:56:59.438Z,4.50
2019-03-27T18:02:03.740Z,5.37
2019-03-27T18:07:08.002Z,5.80
2019-03-27T18:12:12.413Z,5.60
2019-03-27T18:17:16.690Z,5.60
2019-03-27T18:22:21.094Z,5.53
2019-03-27T18:27:25.580Z,5.10
2019-03-27T18:32:29.905Z,5.47
2019-03-27T18:37:34.285Z,5.70
2019-03-27T18:42:38.897Z,5.93
2019-03-27T18:47:43.431Z,9.90
2019-03-27T18:52:47.892Z,8.40
2019-03-27T18:57:59.957Z,9.50
2019-03-27T19:02:58.245Z,9.50
2019-03-27T19:08:02.791Z,9.47
2019-03-27T19:13:07.271Z,9.87
2019-03-27T19:18:12.407Z,10.57
2019-03-27T19:23:19.870Z,10.80
2019-03-27T19:28:24.233Z,9.90
2019-03-27T19:33:28.612Z,10.33
2019-03-27T19:38:32.886Z,9.13
2019-03-27T19:43:38.273Z,9.23
2019-03-27T19:48:42.670Z,10.23
2019-03-27T19:53:46.978Z,9.00
2019-03-27T19:58:51.486Z,8.17
2019-03-27T20:03:55.772Z,7.27
2019-03-27T20:09:00.188Z,7.33
2019-03-27T20:14:04.557Z,7.67
2019-03-27T20:19:08.891Z,7.13
2019-03-27T20:24:13.231Z,6.60
2019-03-27T20:29:17.475Z,7.43
2019-03-27T20:34:22.065Z,5.90
2019-03-27T20:39:26.446Z,6.63
2019-03-27T20:44:30.743Z,6.53
2019-03-27T20:49:35.151Z,6.83
2019-03-27T20:54:39.682Z,5.70
2019-03-27T20:59:44.956Z,6.00
2019-03-27T21:04:49.422Z,5.80
2019-03-27T21:09:54.108Z,5.53
2019-03-27T21:14:58.613Z,6.50
2019-03-27T21:20:03.604Z,6.40
2019-03-27T21:25:09.623Z,5.93
2019-03-27T21:30:14.055Z,6.17
2019-03-27T21:35:19.553Z,5.60
2019-03-27T21:40:25.747Z,6.50
2019-03-27T21:45:32.413Z,5.70
2019-03-27T21:50:36.848Z,6.00
2019-03-27T21:55:43.066Z,6.10
2019-03-27T22:00:47.566Z,5.63
2019-03-27T22:05:52.307Z,5.70
2019-03-27T22:10:56.635Z,5.83
2019-03-27T22:16:01.066Z,6.07
2019-03-27T22:21:05.454Z,5.90
2019-03-27T22:26:09.836Z,5.50
2019-03-27T22:31:14.092Z,5.27
2019-03-27T22:36:18.443Z,5.60
2019-03-27T22:41:22.934Z,5.23
2019-03-27T22:46:27.402Z,5.87
2019-03-27T22:51:31.840Z,6.00
2019-03-27T22:56:36.263Z,6.13
2019-03-27T23:01:43.538Z,5.97
2019-03-27T23:06:47.842Z,6.10
2019-03-27T23:11:52.322Z,5.40
2019-03-27T23:16:56.809Z,6.80
2019-03-27T23:22:01.083Z,5.90
2019-03-27T23:27:05.516Z,5.67
2019-03-27T23:32:09.788Z,5.57
2019-03-27T23:37:14.124Z,5.83
2019-03-27T23:42:18.462Z,6.00
2019-03-27T23:47:22.679Z,5.80
2019-03-27T23:52:27.072Z,5.20
2019-03-27T23:57:31.342Z,4.87
